sensor_id;sensor_type;location;lat;lon;timestamp;pressure;altitude;pressure_sealevel;temperature;humidity
26859;BME280;14429;48.346;16.338;2022-09-09T00:01:09;99568.47;;;25.57;51.62
26859;BME280;14429;48.346;16.338;2022-09-09T00:03:41;99567.41;;;25.51;51.92
26859;BME280;14429;48.346;16.338;2022-09-09T00:06:14;99565.97;;;25.55;51.56
26859;BME280;14429;48.346;16.338;2022-09-09T00:08:48;99570.78;;;25.53;51.82
26859;BME280;14429;48.346;16.338;2022-09-09T00:11:22;99569.97;;;25.59;51.39
26859;BME280;14429;48.346;16.338;2022-09-09T00:13:52;99569.38;;;25.64;50.88
26859;BME280;14429;48.346;16.338;2022-09-09T00:16:20;99558.59;;;25.56;51.42
26859;BME280;14429;48.346;16.338;2022-09-09T00:18:53;99562.97;;;25.50;51.60
26859;BME280;14429;48.346;16.338;2022-09-09T00:21:25;99572.44;;;25.48;51.86
26859;BME280;14429;48.346;16.338;2022-09-09T00:23:54;99564.25;;;25.54;51.83
26859;BME280;14429;48.346;16.338;2022-09-09T00:26:23;99563.06;;;25.63;50.82
26859;BME280;14429;48.346;16.338;2022-09-09T00:29:01;99563.91;;;25.64;51.08
26859;BME280;14429;48.346;16.338;2022-09-09T00:31:30;99568.09;;;25.60;51.48
26859;BME280;14429;48.346;16.338;2022-09-09T00:33:58;99559.28;;;25.64;51.23
26859;BME280;14429;48.346;16.338;2022-09-09T00:36:26;99564.28;;;25.61;51.28
26859;BME280;14429;48.346;16.338;2022-09-09T00:38:55;99551.28;;;25.63;51.27
26859;BME280;14429;48.346;16.338;2022-09-09T00:41:26;99563.00;;;25.57;50.75
26859;BME280;14429;48.346;16.338;2022-09-09T00:44:02;99566.75;;;25.49;51.56
26859;BME280;14429;48.346;16.338;2022-09-09T00:46:46;99564.13;;;25.35;50.87
26859;BME280;14429;48.346;16.338;2022-09-09T00:49:24;99563.31;;;25.41;51.61
26859;BME280;14429;48.346;16.338;2022-09-09T00:51:59;99568.03;;;25.53;51.44
26859;BME280;14429;48.346;16.338;2022-09-09T00:54:36;99563.06;;;25.63;50.45
26859;BME280;14429;48.346;16.338;2022-09-09T00:57:13;99567.69;;;25.69;50.93
26859;BME280;14429;48.346;16.338;2022-09-09T00:59:47;99571.44;;;25.62;51.36
26859;BME280;14429;48.346;16.338;2022-09-09T01:02:17;99558.38;;;25.57;51.13
26859;BME280;14429;48.346;16.338;2022-09-09T01:04:46;99559.00;;;25.53;51.35
26859;BME280;14429;48.346;16.338;2022-09-09T01:07:16;99563.66;;;25.59;50.83
26859;BME280;14429;48.346;16.338;2022-09-09T01:09:50;99568.09;;;25.60;50.86
26859;BME280;14429;48.346;16.338;2022-09-09T01:12:24;99563.22;;;25.55;51.19
26859;BME280;14429;48.346;16.338;2022-09-09T01:14:52;99556.28;;;25.53;51.39
26859;BME280;14429;48.346;16.338;2022-09-09T01:17:21;99567.81;;;25.48;51.49
26859;BME280;14429;48.346;16.338;2022-09-09T01:19:59;99569.72;;;25.48;51.57
26859;BME280;14429;48.346;16.338;2022-09-09T01:22:33;99566.38;;;25.52;50.72
26859;BME280;14429;48.346;16.338;2022-09-09T01:25:18;99578.53;;;25.50;51.08
26859;BME280;14429;48.346;16.338;2022-09-09T01:27:46;99585.81;;;25.43;51.65
26859;BME280;14429;48.346;16.338;2022-09-09T01:30:16;99581.88;;;25.45;51.23
26859;BME280;14429;48.346;16.338;2022-09-09T01:32:44;99584.38;;;25.47;51.34
26859;BME280;14429;48.346;16.338;2022-09-09T01:35:13;99596.63;;;25.51;50.62
26859;BME280;14429;48.346;16.338;2022-09-09T01:37:40;99594.13;;;25.56;50.68
26859;BME280;14429;48.346;16.338;2022-09-09T01:40:06;99594.91;;;25.50;51.14
26859;BME280;14429;48.346;16.338;2022-09-09T01:42:32;99583.38;;;25.48;51.39
26859;BME280;14429;48.346;16.338;2022-09-09T01:44:59;99592.13;;;25.43;51.37
26859;BME280;14429;48.346;16.338;2022-09-09T01:47:24;99593.00;;;25.44;51.24
26859;BME280;14429;48.346;16.338;2022-09-09T01:49:50;99584.00;;;25.50;50.49
26859;BME280;14429;48.346;16.338;2022-09-09T01:52:15;99586.09;;;25.48;51.05
26859;BME280;14429;48.346;16.338;2022-09-09T01:54:41;99586.00;;;25.42;51.21
26859;BME280;14429;48.346;16.338;2022-09-09T01:57:14;99590.44;;;25.42;51.18
26859;BME280;14429;48.346;16.338;2022-09-09T01:59:49;99588.97;;;25.40;51.38
26859;BME280;14429;48.346;16.338;2022-09-09T02:02:24;99589.41;;;25.43;51.04
26859;BME280;14429;48.346;16.338;2022-09-09T02:04:54;99586.94;;;25.48;50.20
26859;BME280;14429;48.346;16.338;2022-09-09T02:07:30;99583.53;;;25.46;50.92
26859;BME280;14429;48.346;16.338;2022-09-09T02:10:08;99586.22;;;25.40;51.23
26859;BME280;14429;48.346;16.338;2022-09-09T02:12:35;99593.97;;;25.37;51.30
26859;BME280;14429;48.346;16.338;2022-09-09T02:15:07;99591.03;;;25.38;51.28
26859;BME280;14429;48.346;16.338;2022-09-09T02:17:38;99583.06;;;25.43;50.68
26859;BME280;14429;48.346;16.338;2022-09-09T02:20:08;99575.16;;;25.48;50.58
26859;BME280;14429;48.346;16.338;2022-09-09T02:22:37;99580.56;;;25.42;51.07
26859;BME280;14429;48.346;16.338;2022-09-09T02:25:06;99589.97;;;25.39;51.07
26859;BME280;14429;48.346;16.338;2022-09-09T02:27:33;99585.72;;;25.30;51.37
26859;BME280;14429;48.346;16.338;2022-09-09T02:30:00;99584.69;;;25.31;51.21
26859;BME280;14429;48.346;16.338;2022-09-09T02:32:27;99590.66;;;25.41;50.42
26859;BME280;14429;48.346;16.338;2022-09-09T02:34:57;99582.22;;;25.36;51.03
26859;BME280;14429;48.346;16.338;2022-09-09T02:37:29;99586.13;;;25.27;51.45
26859;BME280;14429;48.346;16.338;2022-09-09T02:39:55;99585.06;;;25.28;51.39
26859;BME280;14429;48.346;16.338;2022-09-09T02:42:21;99581.72;;;25.26;51.37
26859;BME280;14429;48.346;16.338;2022-09-09T02:44:46;99586.53;;;25.24;51.27
26859;BME280;14429;48.346;16.338;2022-09-09T02:47:22;99587.03;;;25.34;50.49
26859;BME280;14429;48.346;16.338;2022-09-09T02:50:00;99590.81;;;25.33;51.19
26859;BME280;14429;48.346;16.338;2022-09-09T02:52:34;99585.06;;;25.28;51.15
26859;BME280;14429;48.346;16.338;2022-09-09T02:55:08;99578.75;;;25.21;51.29
26859;BME280;14429;48.346;16.338;2022-09-09T02:57:37;99583.78;;;25.24;51.46
26859;BME280;14429;48.346;16.338;2022-09-09T03:00:04;99584.19;;;23.98;45.81
26859;BME280;14429;48.346;16.338;2022-09-09T03:02:29;99591.28;;;24.27;52.94
26859;BME280;14429;48.346;16.338;2022-09-09T03:04:55;99595.22;;;24.80;52.47
26859;BME280;14429;48.346;16.338;2022-09-09T03:07:22;99593.88;;;24.97;52.03
26859;BME280;14429;48.346;16.338;2022-09-09T03:09:47;99588.66;;;25.02;51.76
26859;BME280;14429;48.346;16.338;2022-09-09T03:12:13;99597.13;;;25.07;51.72
26859;BME280;14429;48.346;16.338;2022-09-09T03:14:38;99599.25;;;25.11;51.23
26859;BME280;14429;48.346;16.338;2022-09-09T03:17:05;99598.88;;;25.14;50.96
26859;BME280;14429;48.346;16.338;2022-09-09T03:19:30;99602.06;;;24.97;51.92
26859;BME280;14429;48.346;16.338;2022-09-09T03:21:56;99591.94;;;24.91;51.80
26859;BME280;14429;48.346;16.338;2022-09-09T03:24:23;99594.78;;;25.04;51.72
26859;BME280;14429;48.346;16.338;2022-09-09T03:26:49;99602.59;;;25.07;51.67
26859;BME280;14429;48.346;16.338;2022-09-09T03:29:14;99594.25;;;25.15;51.29
26859;BME280;14429;48.346;16.338;2022-09-09T03:31:40;99596.16;;;25.20;50.57
26859;BME280;14429;48.346;16.338;2022-09-09T03:34:05;99592.13;;;25.16;50.96
26859;BME280;14429;48.346;16.338;2022-09-09T03:36:31;99592.13;;;25.10;51.45
26859;BME280;14429;48.346;16.338;2022-09-09T03:38:56;99580.75;;;25.07;51.30
26859;BME280;14429;48.346;16.338;2022-09-09T03:41:24;99585.78;;;25.10;51.27
26859;BME280;14429;48.346;16.338;2022-09-09T03:43:50;99574.84;;;25.10;51.41
26859;BME280;14429;48.346;16.338;2022-09-09T03:46:15;99580.97;;;25.12;50.64
26859;BME280;14429;48.346;16.338;2022-09-09T03:48:41;99570.72;;;25.14;51.15
26859;BME280;14429;48.346;16.338;2022-09-09T03:51:06;99581.63;;;25.14;51.15
26859;BME280;14429;48.346;16.338;2022-09-09T03:53:31;99582.03;;;25.11;51.30
26859;BME280;14429;48.346;16.338;2022-09-09T03:55:57;99574.84;;;25.10;51.25
26859;BME280;14429;48.346;16.338;2022-09-09T03:58:24;99582.66;;;25.13;51.15
26859;BME280;14429;48.346;16.338;2022-09-09T04:00:54;99587.09;;;25.14;50.74
26859;BME280;14429;48.346;16.338;2022-09-09T04:03:20;99577.66;;;25.16;50.74
26859;BME280;14429;48.346;16.338;2022-09-09T04:05:48;99578.63;;;25.09;51.22
26859;BME280;14429;48.346;16.338;2022-09-09T04:08:14;99581.97;;;25.04;51.40
26859;BME280;14429;48.346;16.338;2022-09-09T04:10:39;99591.66;;;25.07;51.34
26859;BME280;14429;48.346;16.338;2022-09-09T04:13:05;99585.78;;;25.10;51.26
26859;BME280;14429;48.346;16.338;2022-09-09T04:15:31;99584.56;;;25.12;50.87
26859;BME280;14429;48.346;16.338;2022-09-09T04:17:57;99578.25;;;25.12;50.65
26859;BME280;14429;48.346;16.338;2022-09-09T04:20:22;99581.97;;;25.04;50.96
26859;BME280;14429;48.346;16.338;2022-09-09T04:22:48;99588.13;;;24.86;51.35
26859;BME280;14429;48.346;16.338;2022-09-09T04:25:14;99599.28;;;24.90;51.37
26859;BME280;14429;48.346;16.338;2022-09-09T04:27:39;99598.25;;;24.91;51.47
26859;BME280;14429;48.346;16.338;2022-09-09T04:30:05;99602.97;;;25.04;51.36
26859;BME280;14429;48.346;16.338;2022-09-09T04:32:33;99597.97;;;25.07;50.43
26859;BME280;14429;48.346;16.338;2022-09-09T04:34:59;99589.94;;;25.06;51.18
26859;BME280;14429;48.346;16.338;2022-09-09T04:37:24;99596.22;;;25.00;51.15
26859;BME280;14429;48.346;16.338;2022-09-09T04:39:50;99600.78;;;24.93;51.05
26859;BME280;14429;48.346;16.338;2022-09-09T04:42:15;99601.22;;;24.96;51.17
26859;BME280;14429;48.346;16.338;2022-09-09T04:44:41;99605.03;;;25.02;51.01
26859;BME280;14429;48.346;16.338;2022-09-09T04:47:06;99605.03;;;25.02;50.65
26859;BME280;14429;48.346;16.338;2022-09-09T04:49:33;99609.72;;;25.08;50.67
26859;BME280;14429;48.346;16.338;2022-09-09T04:51:58;99617.69;;;25.03;51.07
26859;BME280;14429;48.346;16.338;2022-09-09T04:54:24;99610.50;;;25.02;51.07
26859;BME280;14429;48.346;16.338;2022-09-09T04:56:50;99615.50;;;24.98;51.09
26859;BME280;14429;48.346;16.338;2022-09-09T04:59:15;99609.22;;;24.98;50.88
26859;BME280;14429;48.346;16.338;2022-09-09T05:01:40;99608.59;;;24.96;51.26
26859;BME280;14429;48.346;16.338;2022-09-09T05:04:06;99617.41;;;24.98;50.60
26859;BME280;14429;48.346;16.338;2022-09-09T05:06:32;99626.88;;;25.02;50.93
26859;BME280;14429;48.346;16.338;2022-09-09T05:08:58;99625.13;;;24.94;51.11
26859;BME280;14429;48.346;16.338;2022-09-09T05:11:25;99619.66;;;24.88;51.17
26859;BME280;14429;48.346;16.338;2022-09-09T05:13:51;99628.00;;;24.87;51.13
26859;BME280;14429;48.346;16.338;2022-09-09T05:16:17;99632.25;;;24.89;51.36
26859;BME280;14429;48.346;16.338;2022-09-09T05:18:43;99624.31;;;24.94;51.00
26859;BME280;14429;48.346;16.338;2022-09-09T05:21:09;99629.00;;;25.00;50.33
26859;BME280;14429;48.346;16.338;2022-09-09T05:23:36;99632.34;;;25.02;50.81
26859;BME280;14429;48.346;16.338;2022-09-09T05:26:03;99626.41;;;24.92;51.11
26859;BME280;14429;48.346;16.338;2022-09-09T05:28:28;99633.28;;;24.88;50.88
26859;BME280;14429;48.346;16.338;2022-09-09T05:30:58;99633.47;;;24.87;51.22
26859;BME280;14429;48.346;16.338;2022-09-09T05:33:24;99636.47;;;24.91;50.88
26859;BME280;14429;48.346;16.338;2022-09-09T05:35:55;99640.28;;;24.97;50.61
26859;BME280;14429;48.346;16.338;2022-09-09T05:38:20;99642.63;;;25.00;50.29
26859;BME280;14429;48.346;16.338;2022-09-09T05:40:48;99645.16;;;25.01;50.82
26859;BME280;14429;48.346;16.338;2022-09-09T05:43:13;99642.78;;;24.92;50.68
26859;BME280;14429;48.346;16.338;2022-09-09T05:45:39;99638.75;;;24.88;51.06
26859;BME280;14429;48.346;16.338;2022-09-09T05:48:04;99632.88;;;24.91;51.01
26859;BME280;14429;48.346;16.338;2022-09-09T05:50:30;99640.28;;;24.56;50.32
26859;BME280;14429;48.346;16.338;2022-09-09T05:52:55;99625.09;;;24.88;50.58
26859;BME280;14429;48.346;16.338;2022-09-09T05:55:20;99629.75;;;24.94;50.65
26859;BME280;14429;48.346;16.338;2022-09-09T05:57:49;99617.16;;;24.93;50.88
26859;BME280;14429;48.346;16.338;2022-09-09T06:00:15;99620.50;;;24.89;50.82
26859;BME280;14429;48.346;16.338;2022-09-09T06:02:40;99625.75;;;24.90;50.84
26859;BME280;14429;48.346;16.338;2022-09-09T06:05:06;99617.94;;;24.87;51.07
26859;BME280;14429;48.346;16.338;2022-09-09T06:07:32;99617.31;;;24.85;51.14
26859;BME280;14429;48.346;16.338;2022-09-09T06:09:57;99624.91;;;24.89;50.47
26859;BME280;14429;48.346;16.338;2022-09-09T06:12:22;99628.06;;;24.93;50.49
26859;BME280;14429;48.346;16.338;2022-09-09T06:14:49;99624.06;;;24.89;50.79
26859;BME280;14429;48.346;16.338;2022-09-09T06:17:15;99629.13;;;24.92;50.76
26859;BME280;14429;48.346;16.338;2022-09-09T06:19:40;99615.88;;;24.89;50.58
26859;BME280;14429;48.346;16.338;2022-09-09T06:22:05;99621.53;;;24.88;50.74
26859;BME280;14429;48.346;16.338;2022-09-09T06:24:31;99623.41;;;24.87;50.90
26859;BME280;14429;48.346;16.338;2022-09-09T06:26:56;99619.22;;;24.91;50.51
26859;BME280;14429;48.346;16.338;2022-09-09T06:29:21;99620.53;;;24.95;50.59
26859;BME280;14429;48.346;16.338;2022-09-09T06:31:48;99619.28;;;24.97;50.53
26859;BME280;14429;48.346;16.338;2022-09-09T06:34:14;99620.94;;;24.92;50.49
26859;BME280;14429;48.346;16.338;2022-09-09T06:36:39;99616.91;;;24.88;50.78
26859;BME280;14429;48.346;16.338;2022-09-09T06:39:06;99619.94;;;24.37;51.45
26859;BME280;14429;48.346;16.338;2022-09-09T06:41:32;99628.81;;;24.46;51.19
26859;BME280;14429;48.346;16.338;2022-09-09T06:43:58;99624.00;;;24.27;49.94
26859;BME280;14429;48.346;16.338;2022-09-09T06:46:25;99631.28;;;24.41;51.79
26859;BME280;14429;48.346;16.338;2022-09-09T06:48:52;99627.41;;;24.70;51.31
26859;BME280;14429;48.346;16.338;2022-09-09T06:51:19;99626.19;;;24.73;51.24
26859;BME280;14429;48.346;16.338;2022-09-09T06:53:45;99609.16;;;24.71;51.28
26859;BME280;14429;48.346;16.338;2022-09-09T06:56:20;99603.38;;;24.60;51.28
26859;BME280;14429;48.346;16.338;2022-09-09T06:58:45;99607.84;;;23.62;50.38
26859;BME280;14429;48.346;16.338;2022-09-09T07:01:13;99608.94;;;24.31;52.15
26859;BME280;14429;48.346;16.338;2022-09-09T07:03:39;99617.53;;;24.28;51.25
26859;BME280;14429;48.346;16.338;2022-09-09T07:06:06;99629.78;;;23.32;49.91
26859;BME280;14429;48.346;16.338;2022-09-09T07:08:32;99633.00;;;23.79;52.77
26859;BME280;14429;48.346;16.338;2022-09-09T07:11:02;99637.59;;;24.41;51.88
26859;BME280;14429;48.346;16.338;2022-09-09T07:13:28;99636.88;;;24.54;51.68
26859;BME280;14429;48.346;16.338;2022-09-09T07:15:53;99625.97;;;24.54;51.55
26859;BME280;14429;48.346;16.338;2022-09-09T07:18:18;99630.00;;;24.58;51.53
26859;BME280;14429;48.346;16.338;2022-09-09T07:20:52;99634.31;;;24.66;51.11
26859;BME280;14429;48.346;16.338;2022-09-09T07:23:19;99628.78;;;23.76;49.88
26859;BME280;14429;48.346;16.338;2022-09-09T07:25:45;99621.56;;;24.32;52.07
26859;BME280;14429;48.346;16.338;2022-09-09T07:28:10;99611.22;;;24.48;51.56
26859;BME280;14429;48.346;16.338;2022-09-09T07:30:36;99617.28;;;24.44;51.69
26859;BME280;14429;48.346;16.338;2022-09-09T07:33:01;99620.25;;;24.49;51.57
26859;BME280;14429;48.346;16.338;2022-09-09T07:35:26;99622.47;;;24.60;51.35
26859;BME280;14429;48.346;16.338;2022-09-09T07:37:52;99622.16;;;24.69;51.06
26859;BME280;14429;48.346;16.338;2022-09-09T07:40:19;99614.22;;;24.74;50.89
26859;BME280;14429;48.346;16.338;2022-09-09T07:42:44;99615.38;;;24.44;49.28
26859;BME280;14429;48.346;16.338;2022-09-09T07:45:09;99603.94;;;24.76;50.65
26859;BME280;14429;48.346;16.338;2022-09-09T07:47:35;99612.00;;;24.22;47.76
26859;BME280;14429;48.346;16.338;2022-09-09T07:50:00;99618.31;;;24.43;51.61
26859;BME280;14429;48.346;16.338;2022-09-09T07:52:26;99612.84;;;24.63;50.89
26859;BME280;14429;48.346;16.338;2022-09-09T07:54:51;99617.47;;;24.84;50.60
26859;BME280;14429;48.346;16.338;2022-09-09T07:57:18;99617.06;;;24.80;50.64
26859;BME280;14429;48.346;16.338;2022-09-09T07:59:43;99626.63;;;24.56;49.05
26859;BME280;14429;48.346;16.338;2022-09-09T08:02:09;99637.94;;;24.32;50.49
26859;BME280;14429;48.346;16.338;2022-09-09T08:04:34;99640.59;;;23.83;49.83
26859;BME280;14429;48.346;16.338;2022-09-09T08:07:00;99642.69;;;23.52;50.26
26859;BME280;14429;48.346;16.338;2022-09-09T08:09:27;99642.41;;;23.11;50.92
26859;BME280;14429;48.346;16.338;2022-09-09T08:11:53;99643.09;;;23.13;51.98
26859;BME280;14429;48.346;16.338;2022-09-09T08:14:19;99642.59;;;23.60;51.73
26859;BME280;14429;48.346;16.338;2022-09-09T08:16:46;99631.41;;;23.84;53.37
26859;BME280;14429;48.346;16.338;2022-09-09T08:19:13;99636.25;;;24.03;52.93
26859;BME280;14429;48.346;16.338;2022-09-09T08:21:40;99633.66;;;23.95;52.83
26859;BME280;14429;48.346;16.338;2022-09-09T08:24:06;99637.47;;;24.29;52.12
26859;BME280;14429;48.346;16.338;2022-09-09T08:26:34;99644.00;;;24.13;51.27
26859;BME280;14429;48.346;16.338;2022-09-09T08:29:01;99634.06;;;24.62;50.77
26859;BME280;14429;48.346;16.338;2022-09-09T08:31:31;99633.22;;;24.12;49.38
26859;BME280;14429;48.346;16.338;2022-09-09T08:33:58;99637.19;;;24.09;51.64
26859;BME280;14429;48.346;16.338;2022-09-09T08:36:25;99646.38;;;24.37;51.66
26859;BME280;14429;48.346;16.338;2022-09-09T08:38:52;99648.25;;;24.36;51.98
26859;BME280;14429;48.346;16.338;2022-09-09T08:41:37;99645.59;;;24.63;51.48
26859;BME280;14429;48.346;16.338;2022-09-09T08:44:07;99646.25;;;24.45;50.67
26859;BME280;14429;48.346;16.338;2022-09-09T08:46:44;99651.84;;;24.23;48.62
26859;BME280;14429;48.346;16.338;2022-09-09T08:49:29;99645.34;;;24.59;50.58
26859;BME280;14429;48.346;16.338;2022-09-09T08:52:02;99629.19;;;24.22;48.38
26859;BME280;14429;48.346;16.338;2022-09-09T08:54:31;99625.75;;;24.14;48.10
26859;BME280;14429;48.346;16.338;2022-09-09T08:56:58;99615.06;;;24.33;52.07
26859;BME280;14429;48.346;16.338;2022-09-09T08:59:24;99609.66;;;24.60;51.70
26859;BME280;14429;48.346;16.338;2022-09-09T09:01:57;99612.59;;;24.59;49.63
26859;BME280;14429;48.346;16.338;2022-09-09T09:04:34;99612.25;;;24.12;49.07
26859;BME280;14429;48.346;16.338;2022-09-09T09:07:10;99610.78;;;24.45;51.88
26859;BME280;14429;48.346;16.338;2022-09-09T09:09:46;99613.72;;;24.85;50.77
26859;BME280;14429;48.346;16.338;2022-09-09T09:12:19;99615.47;;;24.92;50.74
26859;BME280;14429;48.346;16.338;2022-09-09T09:14:46;99610.41;;;24.89;50.74
26859;BME280;14429;48.346;16.338;2022-09-09T09:17:16;99611.53;;;24.39;49.86
26859;BME280;14429;48.346;16.338;2022-09-09T09:19:43;99609.94;;;24.09;51.30
26859;BME280;14429;48.346;16.338;2022-09-09T09:22:16;99603.94;;;24.34;51.66
26859;BME280;14429;48.346;16.338;2022-09-09T09:24:48;99603.56;;;24.03;50.71
26859;BME280;14429;48.346;16.338;2022-09-09T09:27:25;99596.69;;;24.21;51.52
26859;BME280;14429;48.346;16.338;2022-09-09T09:29:54;99597.22;;;24.51;51.80
26859;BME280;14429;48.346;16.338;2022-09-09T09:32:24;99598.84;;;24.66;51.54
26859;BME280;14429;48.346;16.338;2022-09-09T09:34:53;99596.69;;;24.62;51.67
26859;BME280;14429;48.346;16.338;2022-09-09T09:37:23;99592.75;;;24.85;51.15
26859;BME280;14429;48.346;16.338;2022-09-09T09:39:51;99594.81;;;24.83;51.10
26859;BME280;14429;48.346;16.338;2022-09-09T09:42:17;99579.53;;;24.68;49.75
26859;BME280;14429;48.346;16.338;2022-09-09T09:44:43;99590.44;;;24.27;51.12
26859;BME280;14429;48.346;16.338;2022-09-09T09:47:12;99573.59;;;24.64;51.69
26859;BME280;14429;48.346;16.338;2022-09-09T09:49:51;99575.06;;;24.81;50.92
26859;BME280;14429;48.346;16.338;2022-09-09T09:52:20;99575.69;;;24.83;51.01
26859;BME280;14429;48.346;16.338;2022-09-09T09:54:46;99561.53;;;24.73;50.36
26859;BME280;14429;48.346;16.338;2022-09-09T09:57:14;99556.72;;;24.75;50.08
26859;BME280;14429;48.346;16.338;2022-09-09T09:59:41;99562.66;;;24.58;50.76
26859;BME280;14429;48.346;16.338;2022-09-09T10:02:15;99565.03;;;24.67;51.30
26859;BME280;14429;48.346;16.338;2022-09-09T10:04:42;99560.25;;;24.69;49.51
26859;BME280;14429;48.346;16.338;2022-09-09T10:07:10;99562.69;;;24.64;49.50
26859;BME280;14429;48.346;16.338;2022-09-09T10:09:36;99564.00;;;24.68;49.32
26859;BME280;14429;48.346;16.338;2022-09-09T10:12:06;99566.97;;;24.94;50.74
26859;BME280;14429;48.346;16.338;2022-09-09T10:14:39;99570.91;;;24.85;46.61
26859;BME280;14429;48.346;16.338;2022-09-09T10:17:15;99566.22;;;24.79;49.37
26859;BME280;14429;48.346;16.338;2022-09-09T10:19:54;99567.72;;;24.82;48.16
26859;BME280;14429;48.346;16.338;2022-09-09T10:22:26;99568.97;;;24.59;45.81
26859;BME280;14429;48.346;16.338;2022-09-09T10:25:07;99566.94;;;24.67;49.05
26859;BME280;14429;48.346;16.338;2022-09-09T10:27:45;99562.69;;;24.64;47.99
26859;BME280;14429;48.346;16.338;2022-09-09T10:30:17;99558.31;;;24.84;45.40
26859;BME280;14429;48.346;16.338;2022-09-09T10:32:49;99558.09;;;24.86;44.94
26859;BME280;14429;48.346;16.338;2022-09-09T10:35:24;99568.66;;;24.95;45.12
26859;BME280;14429;48.346;16.338;2022-09-09T10:38:13;99575.69;;;25.04;45.69
26859;BME280;14429;48.346;16.338;2022-09-09T10:40:43;99572.13;;;25.10;46.63
26859;BME280;14429;48.346;16.338;2022-09-09T10:43:23;99556.25;;;25.19;44.22
26859;BME280;14429;48.346;16.338;2022-09-09T10:46:00;99552.72;;;25.25;47.76
26859;BME280;14429;48.346;16.338;2022-09-09T10:48:33;99554.41;;;25.26;46.45
26859;BME280;14429;48.346;16.338;2022-09-09T10:51:14;99555.63;;;25.24;43.62
26859;BME280;14429;48.346;16.338;2022-09-09T10:53:51;99560.91;;;25.25;46.63
26859;BME280;14429;48.346;16.338;2022-09-09T10:56:20;99561.16;;;25.30;46.53
26859;BME280;14429;48.346;16.338;2022-09-09T10:58:48;99568.28;;;25.31;49.41
26859;BME280;14429;48.346;16.338;2022-09-09T11:01:21;99576.31;;;25.33;49.26
26859;BME280;14429;48.346;16.338;2022-09-09T11:03:53;99577.16;;;25.33;49.56
26859;BME280;14429;48.346;16.338;2022-09-09T11:06:25;99570.84;;;25.33;49.22
26859;BME280;14429;48.346;16.338;2022-09-09T11:08:54;99574.16;;;25.28;49.70
26859;BME280;14429;48.346;16.338;2022-09-09T11:11:26;99572.06;;;25.30;46.31
26859;BME280;14429;48.346;16.338;2022-09-09T11:13:55;99574.03;;;25.36;46.95
26859;BME280;14429;48.346;16.338;2022-09-09T11:16:28;99574.66;;;25.38;45.95
26859;BME280;14429;48.346;16.338;2022-09-09T11:18:58;99567.09;;;25.40;44.54
26859;BME280;14429;48.346;16.338;2022-09-09T11:21:29;99574.41;;;25.33;43.62
26859;BME280;14429;48.346;16.338;2022-09-09T11:23:59;99568.13;;;25.39;47.26
26859;BME280;14429;48.346;16.338;2022-09-09T11:26:30;99569.56;;;25.29;45.09
26859;BME280;14429;48.346;16.338;2022-09-09T11:29:08;99566.22;;;25.33;43.19
26859;BME280;14429;48.346;16.338;2022-09-09T11:31:44;99558.25;;;25.38;48.56
26859;BME280;14429;48.346;16.338;2022-09-09T11:34:21;99563.72;;;25.38;47.64
26859;BME280;14429;48.346;16.338;2022-09-09T11:37:05;99559.50;;;25.36;43.13
26859;BME280;14429;48.346;16.338;2022-09-09T11:39:44;99566.81;;;25.29;46.43
26859;BME280;14429;48.346;16.338;2022-09-09T11:42:18;99563.22;;;25.28;46.18
26859;BME280;14429;48.346;16.338;2022-09-09T11:44:43;99559.06;;;25.32;45.19
26859;BME280;14429;48.346;16.338;2022-09-09T11:47:19;99552.78;;;25.38;47.22
26859;BME280;14429;48.346;16.338;2022-09-09T11:49:45;99548.78;;;25.34;43.69
26859;BME280;14429;48.346;16.338;2022-09-09T11:52:18;99547.72;;;25.29;44.75
26859;BME280;14429;48.346;16.338;2022-09-09T11:54:47;99549.09;;;25.18;47.21
26859;BME280;14429;48.346;16.338;2022-09-09T11:57:24;99543.31;;;25.01;45.39
26859;BME280;14429;48.346;16.338;2022-09-09T11:59:51;99542.97;;;25.16;47.78
26859;BME280;14429;48.346;16.338;2022-09-09T12:02:22;99546.13;;;25.14;44.99
26859;BME280;14429;48.346;16.338;2022-09-09T12:04:54;99547.09;;;25.00;47.48
26859;BME280;14429;48.346;16.338;2022-09-09T12:07:33;99543.47;;;24.93;44.21
26859;BME280;14429;48.346;16.338;2022-09-09T12:10:05;99547.38;;;24.84;45.40
26859;BME280;14429;48.346;16.338;2022-09-09T12:12:32;99541.50;;;24.87;45.00
26859;BME280;14429;48.346;16.338;2022-09-09T12:15:02;99544.75;;;24.76;45.54
26859;BME280;14429;48.346;16.338;2022-09-09T12:17:29;99549.91;;;24.86;46.90
26859;BME280;14429;48.346;16.338;2022-09-09T12:20:06;99545.28;;;24.86;48.42
26859;BME280;14429;48.346;16.338;2022-09-09T12:22:43;99549.69;;;24.87;45.40
26859;BME280;14429;48.346;16.338;2022-09-09T12:25:20;99537.31;;;24.85;45.77
26859;BME280;14429;48.346;16.338;2022-09-09T12:27:58;99536.06;;;24.87;45.27
26859;BME280;14429;48.346;16.338;2022-09-09T12:30:29;99531.09;;;24.76;44.42
26859;BME280;14429;48.346;16.338;2022-09-09T12:33:01;99539.22;;;24.90;45.92
26859;BME280;14429;48.346;16.338;2022-09-09T12:35:27;99527.03;;;24.87;44.78
26859;BME280;14429;48.346;16.338;2022-09-09T12:37:57;99524.16;;;24.74;44.32
26859;BME280;14429;48.346;16.338;2022-09-09T12:40:25;99528.94;;;24.65;43.13
26859;BME280;14429;48.346;16.338;2022-09-09T12:42:51;99533.59;;;24.71;43.24
26859;BME280;14429;48.346;16.338;2022-09-09T12:45:18;99525.47;;;24.78;43.48
26859;BME280;14429;48.346;16.338;2022-09-09T12:47:47;99523.56;;;24.78;42.73
26859;BME280;14429;48.346;16.338;2022-09-09T12:50:19;99520.19;;;24.76;43.13
26859;BME280;14429;48.346;16.338;2022-09-09T12:52:46;99520.50;;;24.81;43.52
26859;BME280;14429;48.346;16.338;2022-09-09T12:55:19;99512.53;;;24.86;43.83
26859;BME280;14429;48.346;16.338;2022-09-09T12:57:45;99510.41;;;24.82;43.24
26859;BME280;14429;48.346;16.338;2022-09-09T13:00:14;99514.22;;;24.87;47.23